Time;durP1;ratioP1;P1;durP2;ratioP2;P2;SDS_P1;SDS_P2;PMS_P1;PMS_P2;Temp;Humidity;BMP_temperature;BMP_pressure;BME280_temperature;BME280_humidity;BME280_pressure;Samples;Min_cycle;Max_cycle;Signal;HPM_P1;HPM_P2
2022/01/30 00:01:41;;;;;;;15.18;4.95;;;7.00;99.90;;;;;;5047730;28;20119;-60
2022/01/30 00:04:06;;;;;;;24.45;5.30;;;7.00;99.90;;;;;;5048800;28;20049;-60
2022/01/30 00:06:32;;;;;;;23.13;5.50;;;7.00;99.90;;;;;;5057253;28;20055;-59
2022/01/30 00:08:57;;;;;;;22.17;5.68;;;6.90;99.90;;;;;;5066787;28;20032;-60
2022/01/30 00:11:28;;;;;;;17.27;5.20;;;7.00;99.90;;;;;;5071821;28;20051;-60
2022/01/30 00:13:54;;;;;;;26.17;6.70;;;7.00;99.90;;;;;;5071015;28;20040;-60
2022/01/30 00:16:22;;;;;;;26.88;5.72;;;7.00;99.90;;;;;;5071843;28;20029;-59
2022/01/30 00:19:20;;;;;;;25.05;6.18;;;7.00;99.90;;;;;;5071412;28;20036;-59
2022/01/30 00:21:39;;;;;;;15.88;3.78;;;6.80;99.90;;;;;;5070191;28;20082;-59
2022/01/30 00:24:13;;;;;;;13.10;3.03;;;6.70;99.90;;;;;;5070503;28;20378;-60
2022/01/30 00:26:41;;;;;;;11.90;3.10;;;6.60;99.90;;;;;;5069598;28;20040;-60
2022/01/30 00:29:07;;;;;;;12.73;2.72;;;6.50;99.90;;;;;;5074546;28;20053;-60
2022/01/30 00:31:35;;;;;;;11.70;2.45;;;6.50;99.90;;;;;;5074330;28;20370;-60
2022/01/30 00:34:01;;;;;;;16.10;3.50;;;6.40;99.90;;;;;;5073327;28;20101;-60
2022/01/30 00:36:30;;;;;;;14.98;3.40;;;6.40;99.90;;;;;;5071482;28;20104;-60
2022/01/30 00:38:57;;;;;;;14.88;4.53;;;6.30;99.90;;;;;;5087654;28;20133;-60
2022/01/30 00:41:22;;;;;;;24.73;5.30;;;6.30;99.90;;;;;;5086912;28;20045;-60
2022/01/30 00:43:48;;;;;;;17.23;3.90;;;6.30;99.90;;;;;;5086900;28;20039;-60
2022/01/30 00:46:14;;;;;;;19.30;5.00;;;6.20;99.90;;;;;;5087713;28;20478;-60
2022/01/30 00:48:40;;;;;;;18.02;4.85;;;6.10;99.90;;;;;;5052800;28;20154;-60
2022/01/30 00:51:05;;;;;;;19.35;5.20;;;6.10;99.90;;;;;;5053755;28;20103;-60
2022/01/30 00:53:31;;;;;;;19.13;6.13;;;6.00;99.90;;;;;;5087404;28;20040;-60
2022/01/30 00:55:57;;;;;;;25.80;5.75;;;6.00;99.90;;;;;;5054045;28;20025;-60
2022/01/30 00:58:22;;;;;;;23.00;6.28;;;6.00;99.90;;;;;;5087190;28;20166;-60
2022/01/30 01:00:48;;;;;;;23.17;6.97;;;6.00;99.90;;;;;;5054450;28;20040;-60
2022/01/30 01:03:14;;;;;;;24.73;6.75;;;6.00;99.90;;;;;;5054156;28;20098;-60
2022/01/30 01:05:39;;;;;;;18.35;5.85;;;5.90;99.90;;;;;;5059795;28;20033;-60
2022/01/30 01:08:15;;;;;;;26.05;6.38;;;6.20;99.90;;;;;;5053530;28;20052;-60
2022/01/30 01:24:04;;;;;;;25.13;6.57;;;6.30;99.90;;;;;;5052632;28;20128;-60
2022/01/30 01:26:30;;;;;;;15.20;5.28;;;6.30;99.90;;;;;;5036425;28;20041;-60
2022/01/30 01:28:56;;;;;;;24.20;6.28;;;6.40;99.90;;;;;;5052870;28;20136;-60
2022/01/30 01:31:22;;;;;;;23.58;6.20;;;6.50;99.90;;;;;;5052582;28;20119;-60
2022/01/30 01:36:17;;;;;;;29.75;7.35;;;6.30;99.90;;;;;;5072062;28;20114;-60
2022/01/30 01:38:44;;;;;;;28.23;6.40;;;6.40;99.90;;;;;;5072421;28;20044;-60
2022/01/30 01:41:11;;;;;;;27.92;8.00;;;6.40;99.90;;;;;;5073437;28;20554;-60
2022/01/30 01:43:37;;;;;;;25.40;5.68;;;6.40;99.90;;;;;;5071389;28;20056;-60
2022/01/30 01:46:04;;;;;;;24.75;6.63;;;6.50;99.90;;;;;;5072580;28;20049;-60
2022/01/30 01:48:35;;;;;;;33.75;7.93;;;6.40;99.90;;;;;;5074108;28;20059;-59
2022/01/30 01:51:13;;;;;;;24.27;6.22;;;6.50;99.90;;;;;;5040105;28;20058;-60
2022/01/30 01:53:39;;;;;;;28.95;7.13;;;6.60;99.90;;;;;;5010766;28;20539;-60
2022/01/30 01:56:04;;;;;;;27.67;8.65;;;6.60;99.90;;;;;;5011219;28;20042;-60
2022/01/30 01:58:30;;;;;;;26.83;6.63;;;6.80;99.90;;;;;;4992798;28;20033;-60
2022/01/30 02:00:59;;;;;;;32.08;6.75;;;6.80;99.90;;;;;;4986831;28;20061;-60
2022/01/30 02:03:25;;;;;;;30.33;6.00;;;6.80;99.90;;;;;;4974319;28;20053;-60
2022/01/30 02:05:55;;;;;;;24.77;7.28;;;6.70;99.90;;;;;;4990788;28;20394;-60
2022/01/30 02:24:21;;;;;;;23.98;5.25;;;7.10;99.90;;;;;;4991971;28;20082;-59
2022/01/30 02:26:47;;;;;;;21.02;4.82;;;6.70;99.90;;;;;;4972744;28;20103;-60
2022/01/30 02:29:13;;;;;;;18.77;4.55;;;6.00;99.90;;;;;;4998876;28;20050;-60
2022/01/30 02:31:41;;;;;;;22.02;4.82;;;6.30;99.90;;;;;;5009922;28;20394;-60
2022/01/30 02:34:07;;;;;;;26.15;6.60;;;6.20;99.90;;;;;;4976406;28;20049;-60
2022/01/30 02:36:47;;;;;;;26.33;6.03;;;6.00;99.90;;;;;;5010680;28;20386;-59
2022/01/30 02:39:13;;;;;;;33.30;6.90;;;6.00;99.90;;;;;;5010585;28;20037;-60
2022/01/30 02:41:39;;;;;;;26.55;7.03;;;6.00;99.90;;;;;;4991869;28;20050;-59
2022/01/30 02:44:12;;;;;;;29.27;6.18;;;6.10;99.90;;;;;;4978354;28;20057;-59
2022/01/30 02:46:43;;;;;;;20.45;5.78;;;6.10;99.90;;;;;;4972424;28;20050;-60
2022/01/30 02:54:21;;;;;;;24.75;6.82;;;6.20;99.90;;;;;;5005778;28;20050;-60
2022/01/30 02:56:47;;;;;;;21.20;5.43;;;6.30;99.90;;;;;;4984561;28;20096;-60
2022/01/30 02:59:14;;;;;;;24.48;7.38;;;6.30;99.90;;;;;;4992637;28;20078;-60
2022/01/30 03:01:41;;;;;;;32.17;8.10;;;6.30;99.90;;;;;;4991561;28;20050;-60
2022/01/30 03:04:08;;;;;;;24.58;6.70;;;6.30;99.90;;;;;;4993039;28;20070;-60
2022/01/30 03:06:34;;;;;;;40.47;9.10;;;6.30;99.90;;;;;;4992411;28;20483;-59
2022/01/30 03:09:02;;;;;;;28.20;6.72;;;6.30;99.90;;;;;;5009283;28;20125;-60
2022/01/30 03:11:28;;;;;;;32.70;7.88;;;6.40;99.90;;;;;;5009397;28;20030;-60
2022/01/30 03:13:54;;;;;;;28.67;6.32;;;6.40;99.90;;;;;;5010006;28;20378;-60
2022/01/30 03:16:21;;;;;;;27.25;8.00;;;6.40;99.90;;;;;;5009385;28;20044;-60
2022/01/30 03:18:47;;;;;;;37.10;8.77;;;6.40;99.90;;;;;;4992129;28;20050;-60
2022/01/30 03:21:13;;;;;;;42.45;11.25;;;6.40;99.90;;;;;;5010197;28;20539;-60
2022/01/30 03:23:39;;;;;;;27.13;8.52;;;6.50;99.90;;;;;;5005754;28;20046;-60
2022/01/30 03:26:09;;;;;;;31.23;7.35;;;6.50;99.90;;;;;;4973000;28;20474;-60
2022/01/30 03:28:35;;;;;;;25.65;7.22;;;6.60;99.90;;;;;;4990092;28;20396;-60
2022/01/30 03:31:05;;;;;;;28.00;8.20;;;6.70;99.90;;;;;;4972352;28;20046;-60
2022/01/30 03:33:32;;;;;;;28.10;7.78;;;6.80;99.90;;;;;;4990030;28;20085;-60
2022/01/30 03:35:58;;;;;;;29.10;8.15;;;7.40;99.90;;;;;;4972324;28;20403;-59
2022/01/30 03:38:24;;;;;;;27.42;8.43;;;6.90;99.90;;;;;;4975563;28;20043;-60
2022/01/30 03:40:50;;;;;;;25.70;7.65;;;7.40;99.90;;;;;;4991860;28;20120;-60
2022/01/30 03:43:16;;;;;;;35.17;9.48;;;7.00;99.90;;;;;;5009139;28;20389;-60
2022/01/30 03:45:43;;;;;;;37.30;9.55;;;7.10;99.90;;;;;;5009365;28;20041;-59
2022/01/30 03:48:09;;;;;;;36.50;9.73;;;6.90;99.90;;;;;;4991853;28;20074;-59
2022/01/30 03:50:35;;;;;;;38.17;10.10;;;7.00;99.90;;;;;;5008390;28;20469;-60
2022/01/30 03:53:01;;;;;;;35.35;9.70;;;7.00;99.90;;;;;;4973659;28;20131;-60
2022/01/30 03:55:26;;;;;;;32.85;9.38;;;7.10;99.90;;;;;;4972594;28;20139;-60
2022/01/30 03:57:52;;;;;;;38.10;10.50;;;7.00;99.90;;;;;;5003972;28;20042;-60
2022/01/30 04:00:18;;;;;;;33.78;9.93;;;7.20;99.90;;;;;;4972531;28;20047;-60
2022/01/30 04:02:44;;;;;;;26.02;7.20;;;7.10;99.90;;;;;;4982848;28;20056;-60
2022/01/30 04:05:09;;;;;;;33.42;7.97;;;7.20;99.90;;;;;;4994652;28;20041;-60
2022/01/30 04:07:36;;;;;;;35.85;8.40;;;7.30;99.90;;;;;;5012477;28;20052;-60
2022/01/30 04:10:05;;;;;;;31.73;9.00;;;7.40;99.90;;;;;;4995331;28;20054;-60
2022/01/30 04:12:31;;;;;;;32.90;8.60;;;6.80;99.90;;;;;;4994391;28;20052;-60
2022/01/30 04:14:57;;;;;;;28.35;8.13;;;7.00;99.90;;;;;;4979604;28;20052;-60
2022/01/30 04:17:23;;;;;;;41.17;9.02;;;6.60;99.90;;;;;;4986317;28;20080;-60
2022/01/30 04:19:49;;;;;;;34.15;8.15;;;7.00;99.90;;;;;;4991781;28;20042;-60
2022/01/30 04:22:15;;;;;;;30.92;9.63;;;7.20;99.90;;;;;;4976013;28;20061;-60
2022/01/30 04:24:40;;;;;;;35.28;8.82;;;7.10;99.90;;;;;;4992472;28;20100;-60
2022/01/30 04:27:06;;;;;;;54.30;15.90;;;7.30;99.90;;;;;;5007325;28;20107;-60
2022/01/30 04:29:32;;;;;;;33.45;10.30;;;6.90;99.90;;;;;;4992944;28;20050;-59
2022/01/30 04:31:59;;;;;;;33.35;10.88;;;6.80;99.90;;;;;;4992984;28;20047;-60
2022/01/30 04:34:26;;;;;;;49.22;13.30;;;6.70;99.90;;;;;;4975581;28;20399;-59
2022/01/30 04:37:03;;;;;;;34.00;13.52;;;6.80;99.90;;;;;;4975493;28;20096;-59
2022/01/30 04:53:36;;;;;;;34.35;12.88;;;7.10;99.90;;;;;;4986071;28;20046;-60
2022/01/30 04:59:10;;;;;;;28.75;11.40;;;7.30;99.90;;;;;;4994212;28;20065;-60
2022/01/30 05:09:20;;;;;;;33.40;9.38;;;6.80;99.90;;;;;;4993359;28;20586;-60
2022/01/30 05:11:45;;;;;;;32.60;8.25;;;6.80;99.90;;;;;;4993604;28;20124;-60
2022/01/30 05:14:13;;;;;;;45.03;12.15;;;6.90;99.90;;;;;;5011323;28;20111;-60
2022/01/30 05:16:39;;;;;;;28.45;8.45;;;6.70;99.90;;;;;;5010584;28;20041;-59
2022/01/30 05:19:05;;;;;;;42.38;10.00;;;6.70;99.90;;;;;;5011839;28;20049;-60
2022/01/30 05:21:31;;;;;;;32.40;9.68;;;6.70;99.90;;;;;;4993778;28;20050;-60
2022/01/30 05:23:57;;;;;;;29.42;8.23;;;6.60;99.90;;;;;;4988825;28;20497;-60
2022/01/30 05:26:25;;;;;;;36.35;9.77;;;6.70;99.90;;;;;;4975083;28;20054;-59
2022/01/30 05:28:52;;;;;;;36.47;10.18;;;6.60;99.90;;;;;;4990768;28;20475;-60
2022/01/30 05:31:18;;;;;;;37.05;8.55;;;6.80;99.90;;;;;;4974692;28;20078;-60
2022/01/30 05:33:44;;;;;;;32.00;9.48;;;6.60;99.90;;;;;;4991702;28;20085;-59
2022/01/30 05:36:10;;;;;;;30.33;8.88;;;6.60;99.90;;;;;;4973973;28;20073;-60
2022/01/30 05:38:36;;;;;;;24.00;7.90;;;6.80;99.90;;;;;;4991440;28;20427;-60
2022/01/30 05:41:02;;;;;;;29.50;9.60;;;6.50;99.90;;;;;;4974450;28;20088;-59
2022/01/30 05:43:30;;;;;;;39.72;9.68;;;6.60;99.90;;;;;;4973611;28;20523;-59
2022/01/30 05:46:11;;;;;;;29.80;8.43;;;6.60;99.90;;;;;;4974298;28;20109;-60
2022/01/30 05:48:37;;;;;;;26.08;7.45;;;6.80;99.90;;;;;;4973620;28;20099;-59
2022/01/30 05:51:02;;;;;;;31.15;8.60;;;6.60;99.90;;;;;;4989641;28;20050;-59
2022/01/30 05:53:28;;;;;;;28.33;7.60;;;6.60;99.90;;;;;;4973816;28;20047;-60
2022/01/30 05:55:54;;;;;;;23.77;7.82;;;6.80;99.90;;;;;;5011152;28;20042;-60
2022/01/30 05:58:19;;;;;;;31.67;9.15;;;6.70;99.90;;;;;;4992996;28;20049;-60
2022/01/30 06:00:45;;;;;;;27.48;9.00;;;6.90;99.90;;;;;;4993190;28;21082;-60
2022/01/30 06:03:10;;;;;;;34.30;9.95;;;6.90;99.90;;;;;;4993659;28;20050;-60
2022/01/30 06:05:38;;;;;;;29.55;8.60;;;6.90;99.90;;;;;;4992708;28;20160;-60
2022/01/30 06:08:12;;;;;;;33.72;9.32;;;7.60;99.90;;;;;;5010884;28;20046;-60
2022/01/30 06:10:38;;;;;;;23.07;7.33;;;6.90;99.90;;;;;;4992362;28;20130;-59
2022/01/30 06:13:03;;;;;;;27.17;6.70;;;6.80;99.90;;;;;;4993463;28;20092;-60
2022/01/30 06:15:29;;;;;;;36.53;7.90;;;6.80;99.90;;;;;;4993704;28;20050;-60
2022/01/30 06:17:55;;;;;;;30.63;8.65;;;6.80;99.90;;;;;;4992686;28;21053;-60
2022/01/30 06:20:21;;;;;;;30.70;9.82;;;7.20;99.90;;;;;;4993562;28;20038;-60
2022/01/30 06:22:46;;;;;;;34.22;13.93;;;6.80;99.90;;;;;;4982239;28;20043;-60
2022/01/30 06:25:13;;;;;;;31.23;9.35;;;6.80;99.90;;;;;;4972165;28;20376;-59
2022/01/30 06:27:38;;;;;;;37.70;11.77;;;6.70;99.90;;;;;;4985468;28;20057;-59
2022/01/30 06:30:06;;;;;;;39.47;9.73;;;6.80;99.90;;;;;;5083840;28;20044;-60
2022/01/30 06:32:32;;;;;;;40.17;12.15;;;6.70;99.90;;;;;;5087620;28;20461;-60
2022/01/30 06:34:58;;;;;;;39.65;8.77;;;7.10;99.90;;;;;;5007177;28;20113;-60
2022/01/30 06:37:23;;;;;;;27.60;7.90;;;6.80;99.90;;;;;;4976750;28;20121;-60
2022/01/30 06:39:49;;;;;;;31.92;9.68;;;6.90;99.90;;;;;;4992033;28;20056;-60
2022/01/30 06:42:15;;;;;;;30.33;7.78;;;6.80;99.90;;;;;;5010537;28;20069;-60
2022/01/30 06:44:43;;;;;;;30.35;8.00;;;6.90;99.90;;;;;;4992448;28;20042;-60
2022/01/30 06:47:09;;;;;;;39.05;10.98;;;6.80;99.90;;;;;;4992164;28;20045;-60
2022/01/30 06:49:35;;;;;;;27.65;8.27;;;6.90;99.90;;;;;;4982490;28;20039;-60
2022/01/30 06:52:01;;;;;;;34.45;7.85;;;6.80;99.90;;;;;;5005751;28;20061;-60
2022/01/30 06:54:26;;;;;;;29.20;7.80;;;6.90;99.90;;;;;;5004987;28;20042;-60
2022/01/30 06:56:52;;;;;;;35.05;7.78;;;6.90;99.90;;;;;;4990630;28;20534;-60
2022/01/30 06:59:18;;;;;;;28.23;8.70;;;6.80;99.90;;;;;;4973298;28;20046;-60
2022/01/30 07:01:44;;;;;;;32.78;8.38;;;6.70;99.90;;;;;;4972292;28;20054;-60
2022/01/30 07:04:10;;;;;;;36.33;9.10;;;6.70;99.90;;;;;;5005526;28;20125;-60
2022/01/30 07:06:35;;;;;;;25.38;8.07;;;6.90;99.90;;;;;;5005108;28;20525;-59
2022/01/30 07:09:01;;;;;;;34.70;8.85;;;6.80;99.90;;;;;;5004016;28;20043;-60
2022/01/30 07:11:27;;;;;;;25.08;6.93;;;6.80;99.90;;;;;;4973995;28;20482;-60
2022/01/30 07:13:53;;;;;;;29.50;8.82;;;6.80;99.90;;;;;;5059457;28;20035;-60
2022/01/30 07:16:18;;;;;;;32.03;8.73;;;6.80;99.90;;;;;;5113136;28;20518;-60
2022/01/30 07:18:44;;;;;;;26.10;8.38;;;6.80;99.90;;;;;;5002078;28;20107;-59
2022/01/30 07:21:10;;;;;;;34.47;9.82;;;6.60;99.90;;;;;;4987676;28;20065;-59
2022/01/30 07:23:38;;;;;;;33.80;9.27;;;6.70;99.90;;;;;;4995451;28;20124;-60
2022/01/30 07:26:04;;;;;;;36.63;9.20;;;6.80;99.90;;;;;;5009608;28;20502;-60
2022/01/30 07:28:30;;;;;;;30.98;8.45;;;6.80;99.90;;;;;;4991288;28;20150;-60
2022/01/30 07:30:56;;;;;;;38.08;9.50;;;6.80;99.90;;;;;;4975824;28;20038;-60
2022/01/30 07:33:22;;;;;;;33.30;10.75;;;6.70;99.90;;;;;;4982382;28;20173;-60
2022/01/30 07:35:50;;;;;;;33.75;9.13;;;6.80;99.90;;;;;;4988155;28;20045;-60
2022/01/30 07:38:16;;;;;;;37.97;10.13;;;6.70;99.90;;;;;;4989354;28;20042;-60
2022/01/30 07:40:43;;;;;;;33.47;8.77;;;6.50;99.90;;;;;;4969487;28;20046;-60
2022/01/30 07:43:09;;;;;;;23.77;7.88;;;6.60;99.90;;;;;;4970007;28;20380;-60
2022/01/30 07:45:35;;;;;;;25.77;7.68;;;6.50;99.90;;;;;;4969369;28;20129;-60
2022/01/30 07:48:02;;;;;;;25.10;7.07;;;6.50;99.90;;;;;;4987310;28;20129;-60
2022/01/30 07:50:29;;;;;;;27.73;6.53;;;6.40;99.90;;;;;;4985955;28;20147;-60
2022/01/30 07:52:54;;;;;;;28.20;7.07;;;6.30;99.90;;;;;;4995996;28;20054;-60
2022/01/30 07:55:20;;;;;;;41.08;9.18;;;6.40;99.90;;;;;;4989338;28;20038;-60
2022/01/30 07:57:46;;;;;;;30.50;7.70;;;6.40;99.90;;;;;;4987698;28;20129;-60
2022/01/30 08:00:12;;;;;;;26.60;7.35;;;6.40;99.90;;;;;;4984299;28;20058;-60
2022/01/30 08:02:38;;;;;;;29.85;9.27;;;6.40;99.90;;;;;;4969260;28;20054;-60
2022/01/30 08:05:04;;;;;;;27.63;8.43;;;6.40;99.90;;;;;;4968850;28;20482;-60
2022/01/30 08:07:31;;;;;;;23.13;7.28;;;6.30;99.90;;;;;;5033112;28;20426;-60
2022/01/30 08:09:56;;;;;;;28.42;7.40;;;6.40;99.90;;;;;;5019885;28;20505;-60
2022/01/30 08:12:22;;;;;;;24.58;8.38;;;6.40;99.90;;;;;;4953046;28;20046;-60
2022/01/30 08:14:48;;;;;;;30.83;8.77;;;6.40;99.90;;;;;;4970013;28;20479;-60
2022/01/30 08:17:23;;;;;;;33.35;8.45;;;6.30;99.90;;;;;;4968806;28;20054;-60
2022/01/30 08:19:52;;;;;;;39.53;11.38;;;6.50;99.90;;;;;;4993179;28;20049;-60
2022/01/30 08:22:18;;;;;;;85.45;41.67;;;6.40;99.90;;;;;;4975671;28;20057;-60
2022/01/30 08:24:44;;;;;;;79.15;39.72;;;6.40;99.90;;;;;;4981389;28;20054;-60
2022/01/30 08:27:09;;;;;;;37.55;8.30;;;6.50;99.90;;;;;;4998448;28;20049;-60
2022/01/30 08:29:37;;;;;;;36.00;9.85;;;6.40;99.90;;;;;;5010083;28;20373;-60
2022/01/30 08:32:04;;;;;;;33.55;8.63;;;6.50;99.90;;;;;;4990755;28;20067;-60
2022/01/30 08:34:30;;;;;;;30.25;8.88;;;6.40;99.90;;;;;;4988799;28;20482;-60
2022/01/30 08:36:55;;;;;;;30.98;7.60;;;6.80;99.90;;;;;;5068534;28;20046;-60
2022/01/30 08:39:21;;;;;;;37.53;8.20;;;6.50;99.90;;;;;;5074496;28;20050;-60
2022/01/30 08:41:47;;;;;;;25.33;7.15;;;6.50;99.90;;;;;;5024203;28;20089;-60
2022/01/30 08:44:12;;;;;;;26.25;7.88;;;6.50;99.90;;;;;;4983950;28;20038;-60
2022/01/30 08:46:38;;;;;;;24.88;7.30;;;6.40;99.90;;;;;;4996536;28;20042;-60
2022/01/30 08:49:03;;;;;;;33.45;7.65;;;6.50;99.90;;;;;;5049704;28;20459;-60
2022/01/30 08:51:29;;;;;;;34.10;8.77;;;6.60;99.90;;;;;;5087669;28;20082;-60
2022/01/30 08:53:55;;;;;;;26.30;7.68;;;6.60;99.90;;;;;;5058746;28;20406;-60
2022/01/30 08:56:23;;;;;;;25.60;7.13;;;6.60;99.90;;;;;;5071017;28;20430;-60
2022/01/30 08:58:49;;;;;;;25.00;7.22;;;6.70;99.90;;;;;;5068777;28;20052;-60
2022/01/30 09:01:15;;;;;;;37.83;7.75;;;6.70;99.90;;;;;;5063395;28;20082;-60
2022/01/30 09:03:43;;;;;;;31.58;8.63;;;6.70;99.90;;;;;;5071431;28;20184;-61
2022/01/30 09:06:09;;;;;;;31.20;7.00;;;6.70;99.90;;;;;;5071173;28;20102;-61
2022/01/30 09:08:35;;;;;;;30.08;8.30;;;6.70;99.90;;;;;;5070175;28;20135;-60
2022/01/30 09:11:00;;;;;;;29.05;8.02;;;6.60;99.90;;;;;;5039982;28;20150;-61
2022/01/30 09:13:26;;;;;;;30.83;8.15;;;6.70;99.90;;;;;;5048846;28;20124;-60
2022/01/30 09:15:56;;;;;;;37.00;9.45;;;6.80;99.90;;;;;;5067747;28;20045;-61
2022/01/30 09:18:23;;;;;;;32.00;9.48;;;6.80;99.90;;;;;;5064329;28;20041;-60
2022/01/30 09:20:49;;;;;;;24.98;8.27;;;6.90;99.90;;;;;;5049921;28;20044;-60
2022/01/30 09:23:15;;;;;;;30.98;8.98;;;6.80;99.90;;;;;;5051192;28;20421;-60
2022/01/30 09:25:40;;;;;;;31.27;7.38;;;6.80;99.90;;;;;;5050507;28;20068;-60
2022/01/30 09:28:06;;;;;;;35.40;9.00;;;6.90;99.90;;;;;;5041061;28;20047;-60
2022/01/30 09:30:33;;;;;;;33.10;8.40;;;6.80;99.90;;;;;;5061788;28;20084;-60
2022/01/30 09:32:58;;;;;;;33.65;9.90;;;6.90;99.90;;;;;;5049349;28;20036;-60
2022/01/30 09:35:24;;;;;;;40.95;10.18;;;6.70;99.90;;;;;;5065268;28;20040;-60
2022/01/30 09:37:50;;;;;;;40.38;8.60;;;6.70;99.90;;;;;;5069829;28;20564;-60
2022/01/30 09:40:17;;;;;;;31.92;9.60;;;7.00;99.90;;;;;;5066585;28;20055;-59
2022/01/30 09:42:44;;;;;;;34.13;9.32;;;7.00;99.90;;;;;;5057218;28;20055;-60
2022/01/30 09:45:11;;;;;;;38.85;10.52;;;7.10;99.90;;;;;;5074172;28;20447;-59
2022/01/30 09:47:38;;;;;;;35.42;8.55;;;6.90;99.90;;;;;;5068948;28;20124;-61
2022/01/30 09:50:06;;;;;;;34.25;9.50;;;6.80;99.90;;;;;;5043624;28;20101;-60
2022/01/30 09:52:33;;;;;;;27.35;8.15;;;6.80;99.90;;;;;;4990623;28;20137;-60
2022/01/30 09:54:58;;;;;;;33.85;8.38;;;6.90;99.90;;;;;;4991530;28;20157;-60
2022/01/30 09:57:24;;;;;;;35.92;9.32;;;6.90;99.90;;;;;;4998484;28;20046;-61
2022/01/30 09:59:50;;;;;;;31.05;8.18;;;7.00;99.90;;;;;;4997596;28;20085;-61
2022/01/30 10:02:16;;;;;;;32.33;8.82;;;;;;;;;;5057368;28;20072;-60
2022/01/30 10:04:42;;;;;;;41.25;8.27;;;;;;;;;;5005733;28;20049;-59
2022/01/30 10:07:13;;;;;;;26.90;8.80;;;;;;;;;;4994302;28;20061;-60
2022/01/30 10:09:45;;;;;;;37.72;9.15;;;;;;;;;;5091852;28;20552;-61
2022/01/30 10:12:23;;;;;;;28.58;8.77;;;;;;;;;;5055265;28;20148;-60
2022/01/30 10:14:49;;;;;;;25.83;8.13;;;;;;;;;;4997835;28;20053;-60
2022/01/30 10:17:29;;;;;;;23.27;7.63;;;;;;;;;;5030219;28;20043;-60
2022/01/30 10:20:02;;;;;;;27.48;8.20;;;;;;;;;;4979751;28;20128;-60
2022/01/30 10:22:28;;;;;;;27.73;7.63;;;;;;;;;;4962076;28;20407;-60
2022/01/30 10:24:54;;;;;;;32.30;7.28;;;;;;;;;;4987776;28;20042;-61
2022/01/30 10:27:21;;;;;;;31.90;8.27;;;;;;;;;;4976710;28;20082;-61
2022/01/30 10:29:57;;;;;;;35.53;7.90;;;;;;;;;;4988605;28;20065;-60
2022/01/30 10:32:23;;;;;;;29.70;8.73;;;;;;;;;;4976091;28;20124;-59
2022/01/30 10:34:56;;;;;;;30.33;7.68;;;;;;;;;;4988062;28;20543;-60
2022/01/30 10:37:24;;;;;;;29.88;7.85;;;;;;;;;;4975659;28;20046;-61
2022/01/30 10:39:53;;;;;;;32.83;10.00;;;;;;;;;;4969883;28;20108;-60
2022/01/30 10:42:38;;;;;;;27.70;7.53;;;;;;;;;;4999802;28;20063;-61
2022/01/30 10:45:05;;;;;;;30.60;7.85;;;;;;;;;;4986097;28;20053;-61
2022/01/30 10:47:32;;;;;;;28.38;9.02;;;;;;;;;;4980388;28;20095;-61
2022/01/30 10:49:59;;;;;;;32.67;7.70;;;;;;;;;;4999301;28;20104;-60
2022/01/30 10:52:25;;;;;;;28.13;6.82;;;;;;;;;;5019159;28;20546;-60
2022/01/30 10:54:51;;;;;;;40.70;8.35;;;;;;;;;;5064764;28;20068;-61
2022/01/30 10:57:17;;;;;;;29.83;7.93;;;;;;;;;;4989685;28;20038;-59
2022/01/30 10:59:52;;;;;;;21.15;6.10;;;;;;;;;;5019809;28;20061;-61
2022/01/30 11:02:19;;;;;;;29.45;8.15;;;;;;;;;;4991075;28;20042;-60
2022/01/30 11:04:47;;;;;;;34.20;7.65;;;;;;;;;;5008861;28;20103;-60
2022/01/30 11:07:16;;;;;;;27.35;7.25;;;;;;;;;;4970935;28;20061;-59
2022/01/30 11:09:54;;;;;;;34.42;6.82;;;;;;;;;;5020352;28;20520;-60
2022/01/30 11:12:30;;;;;;;26.45;6.82;;;;;;;;;;5001923;28;20106;-60
2022/01/30 11:15:15;;;;;;;27.10;7.80;;;;;;;;;;4980378;28;20069;-59
2022/01/30 11:17:41;;;;;;;34.97;7.63;;;;;;;;;;5048546;28;20039;-60
2022/01/30 11:20:08;;;;;;;32.70;6.82;;;;;;;;;;5004629;28;20064;-61
2022/01/30 11:22:36;;;;;;;31.17;7.00;;;;;;;;;;4971764;28;20073;-60
2022/01/30 11:25:04;;;;;;;25.30;7.30;;;;;;;;;;5021454;28;20158;-60
2022/01/30 11:27:31;;;;;;;29.40;7.13;;;;;;;;;;4992171;28;20050;-60
2022/01/30 11:29:59;;;;;;;26.17;6.20;;;;;;;;;;4981932;28;20473;-60
2022/01/30 11:32:27;;;;;;;27.55;6.97;;;;;;;;;;4987781;28;20057;-60
2022/01/30 11:34:53;;;;;;;31.92;9.23;;;;;;;;;;4973092;28;20053;-60
2022/01/30 11:37:20;;;;;;;27.40;7.22;;;;;;;;;;5028799;28;20402;-60
2022/01/30 11:39:51;;;;;;;29.20;7.13;;;;;;;;;;5009120;28;20115;-60
2022/01/30 11:42:21;;;;;;;38.92;8.95;;;;;;;;;;5007107;28;20109;-60
2022/01/30 11:45:10;;;;;;;31.70;7.85;;;;;;;;;;4991478;28;20138;-60
2022/01/30 11:47:49;;;;;;;28.17;6.65;;;;;;;;;;4990599;28;20061;-60
2022/01/30 11:50:25;;;;;;;32.97;7.80;;;;;;;;;;4979751;28;20053;-60
2022/01/30 11:52:54;;;;;;;28.38;6.05;;;;;;;;;;4995458;28;20069;-60
2022/01/30 11:55:38;;;;;;;32.60;8.93;;;;;;;;;;4984932;28;20180;-60
2022/01/30 11:58:05;;;;;;;32.47;7.28;;;;;;;;;;4999516;28;20498;-60
2022/01/30 12:00:48;;;;;;;34.30;9.13;;;;;;;;;;4972290;28;20053;-60
2022/01/30 12:03:37;;;;;;;26.33;7.25;;;;;;;;;;4983638;28;20053;-60
2022/01/30 12:06:21;;;;;;;31.58;7.15;;;;;;;;;;5009444;28;20056;-61
2022/01/30 12:08:51;;;;;;;23.00;7.43;;;;;;;;;;4991651;28;20053;-62
2022/01/30 12:14:02;;;;;;;25.35;7.45;;;;;;;;;;4987685;28;20045;-60
2022/01/30 12:16:43;;;;;;;31.88;8.35;;;;;;;;;;4981488;28;20042;-61
2022/01/30 12:19:11;;;;;;;33.15;7.78;;;;;;;;;;4998227;28;20054;-61
2022/01/30 12:21:38;;;;;;;33.38;7.57;;;;;;;;;;4979759;28;20118;-61
2022/01/30 12:24:23;;;;;;;22.85;6.32;;;;;;;;;;5076513;28;20122;-61
2022/01/30 12:26:50;;;;;;;25.95;7.22;;;;;;;;;;5087253;28;20486;-61
2022/01/30 12:29:34;;;;;;;27.80;6.75;;;;;;;;;;4978752;28;20042;-61
2022/01/30 12:32:20;;;;;;;20.08;6.15;;;;;;;;;;4994210;28;20042;-61
2022/01/30 12:34:55;;;;;;;26.88;6.65;;;;;;;;;;4994478;28;20497;-61
2022/01/30 12:37:21;;;;;;;;;;;;;;;;;;5005798;28;20039;-61
2022/01/30 12:39:47;;;;;;;20.25;5.75;;;;;;;;;;5018444;28;20494;-61
2022/01/30 12:42:17;;;;;;;23.42;6.20;;;;;;;;;;5025575;28;20048;-60
2022/01/30 12:44:44;;;;;;;18.88;5.63;;;;;;;;;;5013632;28;20784;-61
2022/01/30 12:47:10;;;;;;;21.48;5.40;;;;;;;;;;5014417;28;20490;-61
2022/01/30 12:49:43;;;;;;;23.67;6.25;;;;;;;;;;5014065;28;20041;-61
2022/01/30 12:52:20;;;;;;;21.73;5.80;;;;;;;;;;5011985;28;20116;-61
2022/01/30 12:54:49;;;;;;;27.17;6.70;;;;;;;;;;5013894;28;20056;-61
2022/01/30 12:57:15;;;;;;;24.25;6.55;;;;;;;;;;5026602;28;20042;-61
2022/01/30 12:59:47;;;;;;;29.17;6.97;;;;;;;;;;5003742;28;20044;-61
2022/01/30 13:02:13;;;;;;;28.02;6.63;;;;;;;;;;4996493;28;20086;-61
2022/01/30 13:04:39;;;;;;;26.63;7.05;;;;;;;;;;4998389;28;20045;-60
2022/01/30 13:07:05;;;;;;;33.78;7.40;;;;;;;;;;4993284;28;20124;-61
2022/01/30 13:09:32;;;;;;;32.85;7.45;;;;;;;;;;4993441;28;20103;-61
2022/01/30 13:12:12;;;;;;;35.72;6.82;;;;;;;;;;4994410;28;20033;-61
2022/01/30 13:14:43;;;;;;;26.35;6.82;;;;;;;;;;4993297;28;20117;-61
2022/01/30 13:17:13;;;;;;;25.50;5.68;;;;;;;;;;4994446;28;20038;-61
2022/01/30 13:19:41;;;;;;;21.77;8.23;;;;;;;;;;5006610;28;20410;-60
2022/01/30 13:22:09;;;;;;;27.75;6.13;;;;;;;;;;4978402;28;20051;-61
2022/01/30 13:24:35;;;;;;;26.13;7.00;;;;;;;;;;5018559;28;20058;-61
2022/01/30 13:27:03;;;;;;;22.15;7.32;;;;;;;;;;4994878;28;20132;-61
2022/01/30 13:29:33;;;;;;;29.55;7.28;;;;;;;;;;4976427;28;20095;-61
2022/01/30 13:32:00;;;;;;;32.25;7.22;;;;;;;;;;4990610;28;20046;-61
2022/01/30 13:34:26;;;;;;;27.25;7.72;;;;;;;;;;4978066;28;20053;-60
2022/01/30 13:37:03;;;;;;;21.10;6.10;;;;;;;;;;5008406;28;20391;-61
2022/01/30 13:39:40;;;;;;;36.38;7.28;;;;;;;;;;4975698;28;20042;-61
2022/01/30 13:46:53;;;;;;;29.50;7.25;;;;;;;;;;5079035;28;20050;-61
2022/01/30 13:48:03;;;;;;;29.30;7.53;;;;;;;;;;5078044;28;20079;-61
2022/01/30 13:50:37;;;;;;;25.85;6.22;;;;;;;;;;5078643;28;20058;-61
2022/01/30 13:53:03;;;;;;;31.92;6.50;;;;;;;;;;5078265;28;20042;-61
2022/01/30 13:55:29;;;;;;;29.33;7.05;;;;;;;;;;4992893;28;20095;-61
2022/01/30 13:57:57;;;;;;;24.40;6.78;;;;;;;;;;5010147;28;20056;-60
2022/01/30 14:00:23;;;;;;;20.42;5.93;;;;;;;;;;5015247;28;20450;-60
2022/01/30 14:02:53;;;;;;;29.40;7.45;;;;;;;;;;4997017;28;20037;-61
2022/01/30 14:05:23;;;;;;;33.20;6.85;;;;;;;;;;5006380;28;20103;-61
2022/01/30 14:07:49;;;;;;;26.10;7.22;;;;;;;;;;5007142;28;20477;-61
2022/01/30 14:10:17;;;;;;;30.25;7.32;;;;;;;;;;5027016;28;20057;-61
2022/01/30 14:12:43;;;;;;;23.25;6.72;;;;;;;;;;4996009;28;20046;-61
2022/01/30 14:15:11;;;;;;;20.30;6.30;;;;;;;;;;4985553;28;20116;-60
2022/01/30 14:17:41;;;;;;;18.10;5.30;;;;;;;;;;4969746;28;20133;-61
2022/01/30 14:20:10;;;;;;;23.35;6.97;;;;;;;;;;5006569;28;20418;-61
2022/01/30 14:22:36;;;;;;;20.25;6.78;;;;;;;;;;5031031;28;20125;-61
2022/01/30 14:25:06;;;;;;;28.48;7.53;;;7.70;99.90;;;;;;5031438;28;20060;-61
2022/01/30 14:27:37;;;;;;;22.30;6.40;;;7.70;99.90;;;;;;5053674;28;20089;-60